GBS weather

Guayaberos Airport
Huanusco, Zacatecas, Mexico

Public forecast

Using degrees Celsius for public forecast. Weather courtesy of forecast.io.

METAR (pilot weather report)

Closest report is Jesús Terán Paredo International Airport, 36.2 nm (67.1 km) E. Retrieved 2019/04/25 12:45 UTC (37 minutes ago):

MMAS 251245Z 05006KT 9SM BKN100 OVC270 13/M06 A3020 RMK 8/027 HZY

TAF (pilot weather forecast)

Forecast is more than 6 hours old.

Closest forecast is Jesús Terán Paredo International Airport, 36.2 nm (67.1 km) E. Retrieved 2019/04/25 06:05 UTC (7 hours ago):

TAF MMAS 250502Z 2506/2606 24005KT P6SM SCT120 BKN250 FM251600 26015KT P6SM SCT100 BKN250 FM260200 24005KT P6SM BKN250